Řízení letového provozu České republiky  
Aktualizace dat:  13.07.2024 00:59:40 UTC English version
   METEO Zobrazení stránky:  13.07.2024 01:00:45 UTC  
vysvětlivky
METAR EDAC 130050Z AUTO 28008KT 9999 // FEW017/// OVC095/// 18/13 Q1010=
METAR EDDB 130050Z AUTO 28012KT 9999 SCT008 OVC012 19/17 Q1007 TEMPO BKN015=
METAR EDDC 130050Z AUTO 33004KT 290V010 9999 SCT010 BKN037 19/18 Q1009=
METAR EDDE 130050Z AUTO 30006KT 9999 FEW022 14/11 Q1011=
METAR EDDF 130050Z AUTO 29006KT 260V320 CAVOK 15/11 Q1013 NOSIG=
METAR EDDM 130050Z AUTO 24007KT 9999 -RA SCT043 16/16 Q1014 NOSIG=
METAR EDDN 130050Z AUTO 30007KT 9999 +SHRA FEW011 BKN037 BKN049 FEW///CB 17/16 Q1012=
METAR EDDP 130050Z AUTO 29007KT 9999 BKN016 17/15 Q1010 TEMPO SHRA BKN012=
METAR EDQM 130050Z AUTO 23003KT 7000 // FEW050/// SCT061/// 16/16 Q1011=
METAR EPBY 130030Z 09013KT 7000 -SHRA BKN003 BKN026CB 20/19 Q1006 RESHRA=
METAR EPGD 130030Z 06009KT 7000 -SHRA SCT003 FEW033TCU BKN041 17/17 Q1009 RESHRA=
METAR EPKK 130030Z 28005KT 240V300 9999 SCT042CB BKN050 20/19 Q1009=
METAR EPKT 130030Z 15005KT 120V180 CAVOK 19/18 Q1009=
METAR EPLB 130030Z 08005KT CAVOK 21/20 Q1009=
METAR EPLL 130030Z 10006KT 080V140 9999 -SHRA SCT032CB 19/18 Q1007=
METAR EPMO 130030Z 27012KT 9999 SCT060CB 19/19 Q1008 RETSRA=
METAR EPPO 130030Z 17005KT 3700 -RA BR FEW005 BKN007 20/20 Q1005=
METAR EPRZ 130030Z 10005KT CAVOK 21/19 Q1009=
METAR EPWA 130030Z 24007KT 180V290 9999 -SHRA SCT010 BKN019CB 21/20 Q1008 RETSRA NOSIG=
METAR EPWR 130030Z 20005KT CAVOK 18/17 Q1007=
METAR LHBP 130030Z 11004KT CAVOK 24/16 Q1008 NOSIG=
METAR LHPR 130015Z AUTO VRB03KT CAVOK 20/18 Q1008=
METAR LHSM 130015Z AUTO VRB02KT CAVOK 22/20 Q1008=
METAR LKBC 130100Z AUTO 25005KT 9999 -RA OVC100 18/17 Q1011=
METAR LKCR 130030Z AUTO VRB02KT 9999 FEW097 17/16 Q1009=
METAR LKCS 130030Z AUTO 26009KT 9999 -RA NSC 19/17 Q1011=
METAR LKCV 130100Z 11003KT CAVOK 18/17 Q1009 NOSIG RMK BLU BLU=
METAR LKKB 130030Z 19004KT CAVOK 19/18 Q1009 RMK BLU=
METAR LKKU NIL
SPECI LKKV 130018Z VRB03KT 9999 -SHRA VCTS FEW013CB BKN015 17/17 Q1011=
METAR LKLN 130100Z AUTO 22007KT 9999 -RA OVC100 18/17 Q1011=
METAR LKMT 130030Z 32004KT 290V350 9999 SCT008 20/18 Q1009 NOSIG=
METAR LKNA 130100Z 31004KT CAVOK 18/17 Q1010 RMK BLACK=
METAR LKPD 130100Z 26003KT CAVOK 17/17 Q1009 RMK BLU=
SPECI LKPJ 130030Z AUTO 25001KT 9999 FEW008/// SCT012/// BKN020/// 19/18 Q1009=
METAR LKPR 130030Z 22008KT CAVOK 18/18 Q1009 NOSIG=
SPECI LKTB 130045Z 16002KT 0400 R27/0500N FG VV002 18/18 Q1009=
SPECI LKTH 130057Z AUTO VRB02KT 0450 R06/0550D FG VV001 15/15 Q1009=
METAR LKVO NIL
METAR LOWG 130050Z AUTO VRB01KT 9999 NCD 18/17 Q1010=
METAR LOWI 130050Z AUTO 07004KT 040V120 7000 SHRA FEW007 BKN019 16/15 Q1016=
METAR LOWK 130050Z AUTO VRB02KT 9999 NCD 18/17 Q1012=
METAR LOWL 130050Z AUTO 24008KT 9999 -RA FEW011 BKN028 18/17 Q1013=
METAR LOWS 130050Z AUTO 18004KT 150V220 9999 RA FEW024 BKN060 16/16 Q1015 RESHRA=
METAR COR LOWW 130050Z 28005KT 9999 FEW001 19/18 Q1010 BECMG FM0200 29012KT=
METAR LOXT NIL
METAR LOXZ NIL
METAR LZIB 130030Z 22003KT CAVOK 20/19 Q1009 NOSIG=
METAR LZKZ 130030Z VRB02KT CAVOK 24/19 Q1010 NOSIG=
METAR LZMC 130000Z AUTO 19003KT 140V210 0000 ////// 19/18 Q1009=
METAR LZPP 130030Z AUTO 06005KT 9999 NCD 20/19 Q1008=
METAR LZSL 130000Z AUTO 12001KT 9999 // BKN130/// OVC220/// 20/19 Q1010=
METAR LZTT 130030Z 22003KT 160V310 9999 FEW073 19/18 Q1012=
METAR LZZI 130030Z 04004KT 9999 SCT006 SCT056 19/19 Q1009=